CheckWX is a tool to help pilots better visualize weather data.  It is not intended as a substitute for an official pre-flight weather briefing.

10:57:45 UTC

SCIE METAR
Carriel Sur Airport
Concepcion, Chile
Current

58 mins ago

SCIE 181000Z 22004KT 0400 R02/0500N FG OVC002 13/13 Q1011
Observed
Apr-18 @ 10:00 UTC
Wind
  • 220° at 4 KTS
Visibility
402 meters
Flight Rules
LIFR
Conditions
Fog
Cloud Levels
  • Overcast at 200' AGL
Temperature
13°C / 55°F
Dewpoint
13°C / 55°F
Humidity
100%
Altimeter
29.85" Hg
Pressure
1010.92 hPa
Previous

2 hours ago

SCIE 180900Z 18005KT 0800 R02/0550N FG OVC002 13/13 Q1011
Observed
Apr-18 @ 09:00 UTC
Wind
  • 180° at 5 KTS
Visibility
805 meters
Flight Rules
LIFR
Conditions
Fog
Cloud Levels
  • Overcast at 200' AGL
Temperature
13°C / 55°F
Dewpoint
13°C / 55°F
Humidity
100%
Altimeter
29.85" Hg
Pressure
1010.92 hPa
Previous

3 hours ago

SCIE 180800Z 21003KT 0800 R02/0450N FG OVC001 13/13 Q1011
Observed
Apr-18 @ 08:00 UTC
Wind
  • 210° at 3 KTS
Visibility
805 meters
Flight Rules
LIFR
Conditions
Fog
Cloud Levels
  • Overcast at 100' AGL
Temperature
13°C / 55°F
Dewpoint
13°C / 55°F
Humidity
100%
Altimeter
29.85" Hg
Pressure
1010.92 hPa